Main page
METAR-TAF:

METAR-TAF

Airports :

Santa Maria Airport

Aracaju, Sergipe, Brazil

latitude: 10-59S, longitude: 037-04W, elevation: 8 m

Current weather observation

The report was made 42 minutes ago, at 07:00 UTC
Wind 2 kt from the West/Northwest
Temperature 25°C
Humidity 89%
Pressure 1011 hPa
Visibility 10 km or more
Scattered clouds at a height of 1500 ft

METAR: SBAR 200700Z 30002KT 9999 SCT015 25/23 Q1011

Time: 04:42 (07:42 UTC)

Forecast

The report was made 3 hours and 42 minutes ago, at 04:00 UTC
Forecast valid from 20 at 06 UTC to 20 at 18 UTC
Wind 5 kt from the North/Northwest
Visibility 10 km or more
Scattered clouds at a height of 1700 ft
Becoming
from 20 at 12 UTC to 20 at 14 UTC
Wind 8 kt from the Northeast
Becoming
from 20 at 15 UTC to 20 at 17 UTC
Wind 8 kt from the East
Few clouds at a height of 2200 ft

TAF: SBAR 200400Z 2006/2018 34005KT 9999 SCT017 TN25/2007Z TX30/2017Z BECMG 2012/2014 05008KT BECMG 2015/2017 08008KT FEW022 RMK PAY

Weather observations and forecasts of more than 4000 airports (METAR and TAF reports).

The available stations are represented by yellow and red dots on the map.

Hover mouse over dot to see the name of the station.

Then click to see weather observations and forecasts.

To change the map : click on the green buttons with a black cross to zoom in, on the green button with a dash to zoom out, or on the green arrows for adjacent maps.


METAR-TAF: